De Queen, AR

12:22 AM CDT en Octubre 21, 2014 (GMT -0500)
Jones Ridge | Change Station
CLOSE
Current Station
Estación meteorológica personal
Location: De Queen, AR
Altura: 502 ft
Estaciones meteorológicas cercanas

Alt 502 ft 34.07 °N, 94.32 °W | Updated 2 seconds ago

Niebla
Niebla
59.4 ° F
Sensación térmica 59.4 ° F
N
0.0
Viento Variable Viento desde Sur
Gusts 0.0 mph

Hoy
Alta -- | Baja -- ° F
--% Posibilidad de precipitaciones
Ayer
Alta -- | Baja -- ° F
Precip. -- pul
7:27 AM 6:36 PM
Creciente menguante, 7% visible
Presión 30.04 pul
Visibilidad 0.2 Millas
Nubes
Punto de rocío 59 ° F
Humedad 99%
Precipitaciones 0.00 pul
Espesor de la nieve No disponible.
UV No disponible.
Polen 3.80 de una escala de 12
Calidad del aire No disponible.
Flu Activity Sporadic
METAR KDEQ 210501Z AUTO 00000KT 1/4SM FG VV002 13/13 A3004 RMK AO2 T01330133

More Conditions Fewer Conditions

Presión 30.04 pul
Visibilidad 0.2 Millas
Nubes
Punto de rocío 59 ° F
Humedad 99%
Precipitaciones 0.00 pul
Espesor de la nieve No disponible.
UV No disponible.
Polen 3.80 de una escala de 12
Calidad del aire No disponible.
Flu Activity Sporadic
METAR KDEQ 210501Z AUTO 00000KT 1/4SM FG VV002 13/13 A3004 RMK AO2 T01330133

More Conditions Fewer Conditions

10-Day Weather Forecast

Almanac

Astronomía

Oct. 21, 2014 Salida Puesta
Hora real 7:27 AM CDT 6:36 PM CDT
Crepúsculo civil 7:01 AM CDT 7:01 PM CDT
Crepúsculo náutico 6:32 AM CDT 7:30 PM CDT
Crepúsculo astronómico 6:03 AM CDT 7:59 PM CDT
Luna 5:18 AM CDT 5:25 PM CDT
Horas de luz 11h 59m
Horas de luz
11h 08m
Tomorrow will be 1m 59s shorter.
Creciente menguante, 7% of the Moon is Illuminated
Hoy
Creciente menguante
Oct 23
Nueva
Oct 30
Cuarto creciente
Nov 6
Luna llena
Nov 14
Cuarto menguante

Extremos de hoy

Máximos del estado Bajos del estado

Community

WunderPhotos

Upload Photos

1,763,612 ¡fotos cargadas!

Nearby

Grosos de nieve

Estación Profundido Altura
No tenemos constancia de nieve nueva.

Actividad de terremotos

Ciudad Distance Mag. Tiempo y dato
No hay informes recientes de la actividad sísmica.
Magnitud mínima muestra es 2,5.

Temperaturas de aguas costeras

Lugar Temperatura
Sin partes meteorológicos de las estaciones

Estaciones meteorológicas cercanas